sensor_id;sensor_type;location;lat;lon;timestamp;P1;durP1;ratioP1;P2;durP2;ratioP2
11328;SDS011;5719;42.714;23.732;2023-04-03T00:00:47;2.50;;;2.00;;
11328;SDS011;5719;42.714;23.732;2023-04-03T00:03:14;2.00;;;1.70;;
11328;SDS011;5719;42.714;23.732;2023-04-03T00:05:41;4.25;;;2.97;;
11328;SDS011;5719;42.714;23.732;2023-04-03T00:08:10;10.02;;;3.50;;
11328;SDS011;5719;42.714;23.732;2023-04-03T00:10:37;8.25;;;4.53;;
11328;SDS011;5719;42.714;23.732;2023-04-03T00:13:04;7.30;;;4.25;;
11328;SDS011;5719;42.714;23.732;2023-04-03T00:15:32;6.57;;;3.63;;
11328;SDS011;5719;42.714;23.732;2023-04-03T00:17:59;7.88;;;3.75;;
11328;SDS011;5719;42.714;23.732;2023-04-03T00:20:26;3.80;;;2.80;;
11328;SDS011;5719;42.714;23.732;2023-04-03T00:22:53;3.75;;;2.83;;
11328;SDS011;5719;42.714;23.732;2023-04-03T00:25:22;6.07;;;3.00;;
11328;SDS011;5719;42.714;23.732;2023-04-03T00:27:49;2.90;;;2.53;;
11328;SDS011;5719;42.714;23.732;2023-04-03T00:30:17;4.13;;;2.60;;
11328;SDS011;5719;42.714;23.732;2023-04-03T00:32:47;4.03;;;2.38;;
11328;SDS011;5719;42.714;23.732;2023-04-03T00:35:14;3.22;;;2.33;;
11328;SDS011;5719;42.714;23.732;2023-04-03T00:37:41;4.07;;;2.60;;
11328;SDS011;5719;42.714;23.732;2023-04-03T00:40:09;5.05;;;3.42;;
11328;SDS011;5719;42.714;23.732;2023-04-03T00:42:39;4.53;;;3.10;;
11328;SDS011;5719;42.714;23.732;2023-04-03T00:45:23;8.38;;;3.25;;
11328;SDS011;5719;42.714;23.732;2023-04-03T00:47:58;4.75;;;2.95;;
11328;SDS011;5719;42.714;23.732;2023-04-03T00:50:27;4.55;;;2.97;;
11328;SDS011;5719;42.714;23.732;2023-04-03T00:52:55;5.78;;;2.90;;
11328;SDS011;5719;42.714;23.732;2023-04-03T00:55:23;3.30;;;2.53;;
11328;SDS011;5719;42.714;23.732;2023-04-03T00:57:52;5.25;;;3.05;;
11328;SDS011;5719;42.714;23.732;2023-04-03T01:00:21;5.97;;;3.03;;
11328;SDS011;5719;42.714;23.732;2023-04-03T01:02:49;5.78;;;3.58;;
11328;SDS011;5719;42.714;23.732;2023-04-03T01:05:17;6.15;;;3.30;;
11328;SDS011;5719;42.714;23.732;2023-04-03T01:07:46;6.53;;;4.07;;
11328;SDS011;5719;42.714;23.732;2023-04-03T01:10:16;18.98;;;4.72;;
11328;SDS011;5719;42.714;23.732;2023-04-03T01:12:45;7.55;;;4.10;;
11328;SDS011;5719;42.714;23.732;2023-04-03T01:15:16;6.75;;;4.43;;
11328;SDS011;5719;42.714;23.732;2023-04-03T01:17:44;6.28;;;4.13;;
11328;SDS011;5719;42.714;23.732;2023-04-03T01:23:24;9.25;;;4.50;;
11328;SDS011;5719;42.714;23.732;2023-04-03T01:25:58;7.13;;;4.32;;
11328;SDS011;5719;42.714;23.732;2023-04-03T01:28:26;5.00;;;4.28;;
11328;SDS011;5719;42.714;23.732;2023-04-03T01:30:58;5.10;;;4.18;;
11328;SDS011;5719;42.714;23.732;2023-04-03T01:33:33;5.40;;;3.67;;
11328;SDS011;5719;42.714;23.732;2023-04-03T01:36:01;4.20;;;3.25;;
11328;SDS011;5719;42.714;23.732;2023-04-03T01:38:28;3.72;;;2.78;;
11328;SDS011;5719;42.714;23.732;2023-04-03T01:40:56;3.03;;;2.67;;
11328;SDS011;5719;42.714;23.732;2023-04-03T01:43:23;5.43;;;3.13;;
11328;SDS011;5719;42.714;23.732;2023-04-03T01:45:50;4.05;;;2.70;;
11328;SDS011;5719;42.714;23.732;2023-04-03T01:48:19;4.40;;;2.70;;
11328;SDS011;5719;42.714;23.732;2023-04-03T01:50:48;3.53;;;2.55;;
11328;SDS011;5719;42.714;23.732;2023-04-03T01:53:14;3.67;;;2.45;;
11328;SDS011;5719;42.714;23.732;2023-04-03T01:55:41;7.53;;;2.75;;
11328;SDS011;5719;42.714;23.732;2023-04-03T01:58:08;3.90;;;2.28;;
11328;SDS011;5719;42.714;23.732;2023-04-03T02:00:35;5.78;;;2.95;;
11328;SDS011;5719;42.714;23.732;2023-04-03T02:03:02;3.40;;;2.00;;
11328;SDS011;5719;42.714;23.732;2023-04-03T02:05:29;2.78;;;2.20;;
11328;SDS011;5719;42.714;23.732;2023-04-03T02:07:58;2.92;;;2.10;;
11328;SDS011;5719;42.714;23.732;2023-04-03T02:10:25;2.17;;;1.83;;
11328;SDS011;5719;42.714;23.732;2023-04-03T02:12:52;5.65;;;2.28;;
11328;SDS011;5719;42.714;23.732;2023-04-03T02:15:19;2.75;;;2.10;;
11328;SDS011;5719;42.714;23.732;2023-04-03T02:17:46;1.95;;;1.77;;
11328;SDS011;5719;42.714;23.732;2023-04-03T02:20:13;2.08;;;1.88;;
11328;SDS011;5719;42.714;23.732;2023-04-03T02:22:39;3.38;;;2.10;;
11328;SDS011;5719;42.714;23.732;2023-04-03T02:25:08;2.83;;;1.92;;
11328;SDS011;5719;42.714;23.732;2023-04-03T02:27:36;2.35;;;1.90;;
11328;SDS011;5719;42.714;23.732;2023-04-03T02:30:03;3.03;;;2.00;;
11328;SDS011;5719;42.714;23.732;2023-04-03T02:32:30;3.40;;;1.70;;
11328;SDS011;5719;42.714;23.732;2023-04-03T02:34:57;2.15;;;1.83;;
11328;SDS011;5719;42.714;23.732;2023-04-03T02:37:24;2.03;;;1.80;;
11328;SDS011;5719;42.714;23.732;2023-04-03T02:39:51;2.40;;;1.85;;
11328;SDS011;5719;42.714;23.732;2023-04-03T02:42:19;3.95;;;1.98;;
11328;SDS011;5719;42.714;23.732;2023-04-03T02:44:46;3.13;;;2.30;;
11328;SDS011;5719;42.714;23.732;2023-04-03T02:47:13;3.17;;;1.90;;
11328;SDS011;5719;42.714;23.732;2023-04-03T02:49:40;2.45;;;1.75;;
11328;SDS011;5719;42.714;23.732;2023-04-03T02:52:08;2.42;;;1.90;;
11328;SDS011;5719;42.714;23.732;2023-04-03T02:54:35;2.35;;;1.92;;
11328;SDS011;5719;42.714;23.732;2023-04-03T02:57:02;4.10;;;2.28;;
11328;SDS011;5719;42.714;23.732;2023-04-03T02:59:31;3.08;;;2.25;;
11328;SDS011;5719;42.714;23.732;2023-04-03T03:01:58;4.15;;;2.10;;
11328;SDS011;5719;42.714;23.732;2023-04-03T03:04:24;2.55;;;1.98;;
11328;SDS011;5719;42.714;23.732;2023-04-03T03:06:51;2.25;;;1.88;;
11328;SDS011;5719;42.714;23.732;2023-04-03T03:09:18;2.08;;;1.90;;
11328;SDS011;5719;42.714;23.732;2023-04-03T03:11:45;4.18;;;2.15;;
11328;SDS011;5719;42.714;23.732;2023-04-03T03:14:12;2.28;;;2.08;;
11328;SDS011;5719;42.714;23.732;2023-04-03T03:16:40;2.67;;;1.85;;
11328;SDS011;5719;42.714;23.732;2023-04-03T03:19:07;2.58;;;2.30;;
11328;SDS011;5719;42.714;23.732;2023-04-03T03:21:34;2.20;;;2.00;;
11328;SDS011;5719;42.714;23.732;2023-04-03T03:24:01;2.10;;;1.83;;
11328;SDS011;5719;42.714;23.732;2023-04-03T03:26:28;2.22;;;2.03;;
11328;SDS011;5719;42.714;23.732;2023-04-03T03:28:55;2.22;;;2.00;;
11328;SDS011;5719;42.714;23.732;2023-04-03T03:31:22;2.28;;;2.00;;
11328;SDS011;5719;42.714;23.732;2023-04-03T03:33:50;2.25;;;2.05;;
11328;SDS011;5719;42.714;23.732;2023-04-03T03:36:17;2.85;;;2.08;;
11328;SDS011;5719;42.714;23.732;2023-04-03T03:38:44;4.10;;;2.08;;
11328;SDS011;5719;42.714;23.732;2023-04-03T03:41:11;2.25;;;2.05;;
11328;SDS011;5719;42.714;23.732;2023-04-03T03:43:38;2.28;;;2.03;;
11328;SDS011;5719;42.714;23.732;2023-04-03T03:46:05;2.78;;;1.85;;
11328;SDS011;5719;42.714;23.732;2023-04-03T03:48:32;3.03;;;1.95;;
11328;SDS011;5719;42.714;23.732;2023-04-03T03:51:00;3.25;;;2.30;;
11328;SDS011;5719;42.714;23.732;2023-04-03T03:53:27;10.25;;;1.98;;
11328;SDS011;5719;42.714;23.732;2023-04-03T03:55:54;2.15;;;1.92;;
11328;SDS011;5719;42.714;23.732;2023-04-03T03:58:21;3.05;;;1.85;;
11328;SDS011;5719;42.714;23.732;2023-04-03T04:00:48;2.65;;;2.15;;
11328;SDS011;5719;42.714;23.732;2023-04-03T04:03:15;4.88;;;2.20;;
11328;SDS011;5719;42.714;23.732;2023-04-03T04:05:42;5.25;;;2.20;;
11328;SDS011;5719;42.714;23.732;2023-04-03T04:08:11;4.90;;;2.05;;
11328;SDS011;5719;42.714;23.732;2023-04-03T04:10:37;4.85;;;2.60;;
11328;SDS011;5719;42.714;23.732;2023-04-03T04:13:06;6.38;;;2.03;;
11328;SDS011;5719;42.714;23.732;2023-04-03T04:15:32;4.82;;;2.20;;
11328;SDS011;5719;42.714;23.732;2023-04-03T04:17:59;8.20;;;3.08;;
11328;SDS011;5719;42.714;23.732;2023-04-03T04:20:26;6.05;;;3.47;;
11328;SDS011;5719;42.714;23.732;2023-04-03T04:22:53;9.07;;;3.85;;
11328;SDS011;5719;42.714;23.732;2023-04-03T04:25:21;5.47;;;3.10;;
11328;SDS011;5719;42.714;23.732;2023-04-03T04:27:48;7.07;;;3.38;;
11328;SDS011;5719;42.714;23.732;2023-04-03T04:30:15;4.68;;;3.25;;
11328;SDS011;5719;42.714;23.732;2023-04-03T04:32:42;5.90;;;3.30;;
11328;SDS011;5719;42.714;23.732;2023-04-03T04:35:09;14.15;;;3.67;;
11328;SDS011;5719;42.714;23.732;2023-04-03T04:37:36;10.30;;;4.28;;
11328;SDS011;5719;42.714;23.732;2023-04-03T04:40:03;13.43;;;3.55;;
11328;SDS011;5719;42.714;23.732;2023-04-03T04:42:33;11.75;;;4.30;;
11328;SDS011;5719;42.714;23.732;2023-04-03T04:45:00;13.30;;;3.70;;
11328;SDS011;5719;42.714;23.732;2023-04-03T04:47:27;4.30;;;3.35;;
11328;SDS011;5719;42.714;23.732;2023-04-03T04:49:55;13.93;;;5.15;;
11328;SDS011;5719;42.714;23.732;2023-04-03T04:52:22;8.05;;;4.03;;
11328;SDS011;5719;42.714;23.732;2023-04-03T04:54:49;13.43;;;4.50;;
11328;SDS011;5719;42.714;23.732;2023-04-03T04:57:16;7.07;;;4.30;;
11328;SDS011;5719;42.714;23.732;2023-04-03T04:59:44;9.48;;;5.10;;
11328;SDS011;5719;42.714;23.732;2023-04-03T05:02:11;6.90;;;3.97;;
11328;SDS011;5719;42.714;23.732;2023-04-03T05:04:38;7.78;;;4.35;;
11328;SDS011;5719;42.714;23.732;2023-04-03T05:07:05;9.57;;;6.50;;
11328;SDS011;5719;42.714;23.732;2023-04-03T05:09:32;14.63;;;5.30;;
11328;SDS011;5719;42.714;23.732;2023-04-03T05:11:59;8.90;;;4.15;;
11328;SDS011;5719;42.714;23.732;2023-04-03T05:14:28;7.13;;;4.10;;
11328;SDS011;5719;42.714;23.732;2023-04-03T05:16:56;6.75;;;3.17;;
11328;SDS011;5719;42.714;23.732;2023-04-03T05:19:23;6.28;;;2.90;;
11328;SDS011;5719;42.714;23.732;2023-04-03T05:21:52;2.53;;;2.00;;
11328;SDS011;5719;42.714;23.732;2023-04-03T05:24:20;2.38;;;2.05;;
11328;SDS011;5719;42.714;23.732;2023-04-03T05:26:47;2.45;;;2.10;;
11328;SDS011;5719;42.714;23.732;2023-04-03T05:29:14;3.58;;;2.42;;
11328;SDS011;5719;42.714;23.732;2023-04-03T05:31:41;2.83;;;2.60;;
11328;SDS011;5719;42.714;23.732;2023-04-03T05:34:09;3.80;;;2.30;;
11328;SDS011;5719;42.714;23.732;2023-04-03T05:36:36;4.78;;;2.30;;
11328;SDS011;5719;42.714;23.732;2023-04-03T05:39:03;5.05;;;2.40;;
11328;SDS011;5719;42.714;23.732;2023-04-03T05:41:30;3.00;;;2.58;;
11328;SDS011;5719;42.714;23.732;2023-04-03T05:43:57;5.07;;;2.60;;
11328;SDS011;5719;42.714;23.732;2023-04-03T05:46:24;2.63;;;2.28;;
11328;SDS011;5719;42.714;23.732;2023-04-03T05:48:51;2.50;;;2.30;;
11328;SDS011;5719;42.714;23.732;2023-04-03T05:51:21;3.25;;;2.30;;
11328;SDS011;5719;42.714;23.732;2023-04-03T05:53:52;3.70;;;2.40;;
11328;SDS011;5719;42.714;23.732;2023-04-03T05:56:23;4.03;;;2.58;;
11328;SDS011;5719;42.714;23.732;2023-04-03T05:58:50;4.00;;;2.78;;
11328;SDS011;5719;42.714;23.732;2023-04-03T06:01:18;4.68;;;3.97;;
11328;SDS011;5719;42.714;23.732;2023-04-03T06:03:45;10.93;;;6.82;;
11328;SDS011;5719;42.714;23.732;2023-04-03T06:06:12;8.10;;;5.38;;
11328;SDS011;5719;42.714;23.732;2023-04-03T06:08:42;5.22;;;3.85;;
11328;SDS011;5719;42.714;23.732;2023-04-03T06:11:11;3.38;;;3.08;;
11328;SDS011;5719;42.714;23.732;2023-04-03T06:13:38;5.35;;;4.18;;
11328;SDS011;5719;42.714;23.732;2023-04-03T06:16:06;4.22;;;3.55;;
11328;SDS011;5719;42.714;23.732;2023-04-03T06:18:34;8.70;;;3.15;;
11328;SDS011;5719;42.714;23.732;2023-04-03T06:21:01;3.95;;;3.33;;
11328;SDS011;5719;42.714;23.732;2023-04-03T06:23:29;5.28;;;3.60;;
11328;SDS011;5719;42.714;23.732;2023-04-03T06:25:59;5.82;;;3.72;;
11328;SDS011;5719;42.714;23.732;2023-04-03T06:28:26;4.40;;;3.67;;
11328;SDS011;5719;42.714;23.732;2023-04-03T06:30:53;4.45;;;3.40;;
11328;SDS011;5719;42.714;23.732;2023-04-03T06:33:20;5.10;;;4.07;;
11328;SDS011;5719;42.714;23.732;2023-04-03T06:35:47;5.15;;;3.47;;
11328;SDS011;5719;42.714;23.732;2023-04-03T06:38:14;4.70;;;3.13;;
11328;SDS011;5719;42.714;23.732;2023-04-03T06:40:41;5.10;;;3.33;;
11328;SDS011;5719;42.714;23.732;2023-04-03T06:43:10;5.13;;;2.88;;
11328;SDS011;5719;42.714;23.732;2023-04-03T06:45:37;5.05;;;3.50;;
11328;SDS011;5719;42.714;23.732;2023-04-03T06:48:04;4.45;;;3.38;;
11328;SDS011;5719;42.714;23.732;2023-04-03T06:50:31;5.90;;;3.17;;
11328;SDS011;5719;42.714;23.732;2023-04-03T06:52:58;4.93;;;3.13;;
11328;SDS011;5719;42.714;23.732;2023-04-03T06:55:26;3.92;;;3.10;;
11328;SDS011;5719;42.714;23.732;2023-04-03T06:57:53;5.80;;;2.95;;
11328;SDS011;5719;42.714;23.732;2023-04-03T07:00:22;4.80;;;4.10;;
11328;SDS011;5719;42.714;23.732;2023-04-03T07:02:50;3.83;;;3.35;;
11328;SDS011;5719;42.714;23.732;2023-04-03T07:05:17;6.25;;;3.30;;
11328;SDS011;5719;42.714;23.732;2023-04-03T07:07:45;4.43;;;2.70;;
11328;SDS011;5719;42.714;23.732;2023-04-03T07:10:12;5.25;;;3.55;;
11328;SDS011;5719;42.714;23.732;2023-04-03T07:12:39;16.08;;;4.63;;
11328;SDS011;5719;42.714;23.732;2023-04-03T07:15:07;4.97;;;3.22;;
11328;SDS011;5719;42.714;23.732;2023-04-03T07:17:36;5.40;;;3.33;;
11328;SDS011;5719;42.714;23.732;2023-04-03T07:20:03;3.67;;;3.03;;
11328;SDS011;5719;42.714;23.732;2023-04-03T07:22:31;6.72;;;3.58;;
11328;SDS011;5719;42.714;23.732;2023-04-03T07:24:58;5.97;;;3.85;;
11328;SDS011;5719;42.714;23.732;2023-04-03T07:27:25;6.55;;;3.55;;
11328;SDS011;5719;42.714;23.732;2023-04-03T07:29:52;5.38;;;3.45;;
11328;SDS011;5719;42.714;23.732;2023-04-03T07:32:21;5.97;;;3.55;;
11328;SDS011;5719;42.714;23.732;2023-04-03T07:34:49;4.75;;;2.88;;
11328;SDS011;5719;42.714;23.732;2023-04-03T07:37:16;6.07;;;3.33;;
11328;SDS011;5719;42.714;23.732;2023-04-03T07:39:44;4.85;;;3.40;;
11328;SDS011;5719;42.714;23.732;2023-04-03T07:42:12;6.32;;;3.30;;
11328;SDS011;5719;42.714;23.732;2023-04-03T07:44:39;4.63;;;3.35;;
11328;SDS011;5719;42.714;23.732;2023-04-03T07:47:06;4.43;;;3.67;;
11328;SDS011;5719;42.714;23.732;2023-04-03T07:49:33;5.32;;;3.05;;
11328;SDS011;5719;42.714;23.732;2023-04-03T07:52:04;9.75;;;3.55;;
11328;SDS011;5719;42.714;23.732;2023-04-03T07:54:32;4.43;;;3.25;;
11328;SDS011;5719;42.714;23.732;2023-04-03T07:57:00;4.55;;;3.22;;
11328;SDS011;5719;42.714;23.732;2023-04-03T07:59:27;3.85;;;3.10;;
11328;SDS011;5719;42.714;23.732;2023-04-03T08:01:54;4.63;;;2.83;;
11328;SDS011;5719;42.714;23.732;2023-04-03T08:04:22;7.22;;;3.20;;
11328;SDS011;5719;42.714;23.732;2023-04-03T08:06:49;4.00;;;2.90;;
11328;SDS011;5719;42.714;23.732;2023-04-03T08:09:17;5.35;;;2.90;;
11328;SDS011;5719;42.714;23.732;2023-04-03T08:11:45;4.07;;;2.67;;
11328;SDS011;5719;42.714;23.732;2023-04-03T08:14:12;3.75;;;2.78;;
11328;SDS011;5719;42.714;23.732;2023-04-03T08:16:43;2.92;;;2.50;;
11328;SDS011;5719;42.714;23.732;2023-04-03T08:19:11;5.40;;;2.78;;
11328;SDS011;5719;42.714;23.732;2023-04-03T08:21:39;3.33;;;2.78;;
11328;SDS011;5719;42.714;23.732;2023-04-03T08:24:07;4.95;;;2.83;;
11328;SDS011;5719;42.714;23.732;2023-04-03T08:26:36;2.50;;;2.30;;
11328;SDS011;5719;42.714;23.732;2023-04-03T08:29:03;3.55;;;2.58;;
11328;SDS011;5719;42.714;23.732;2023-04-03T08:31:30;3.85;;;2.40;;
11328;SDS011;5719;42.714;23.732;2023-04-03T08:33:57;2.22;;;2.03;;
11328;SDS011;5719;42.714;23.732;2023-04-03T08:36:25;3.17;;;2.33;;
11328;SDS011;5719;42.714;23.732;2023-04-03T08:38:53;3.05;;;2.47;;
11328;SDS011;5719;42.714;23.732;2023-04-03T08:41:24;6.50;;;2.40;;
11328;SDS011;5719;42.714;23.732;2023-04-03T08:44:00;2.80;;;2.20;;
11328;SDS011;5719;42.714;23.732;2023-04-03T08:46:37;3.42;;;2.10;;
11328;SDS011;5719;42.714;23.732;2023-04-03T08:49:14;2.17;;;1.95;;
11328;SDS011;5719;42.714;23.732;2023-04-03T08:51:49;2.63;;;2.42;;
11328;SDS011;5719;42.714;23.732;2023-04-03T08:54:21;2.90;;;2.60;;
11328;SDS011;5719;42.714;23.732;2023-04-03T08:56:54;3.92;;;2.63;;
11328;SDS011;5719;42.714;23.732;2023-04-03T08:59:25;5.18;;;2.97;;
11328;SDS011;5719;42.714;23.732;2023-04-03T09:04:23;2.92;;;2.60;;
11328;SDS011;5719;42.714;23.732;2023-04-03T09:06:58;4.13;;;2.55;;
11328;SDS011;5719;42.714;23.732;2023-04-03T09:09:34;5.95;;;3.33;;
11328;SDS011;5719;42.714;23.732;2023-04-03T09:12:09;4.85;;;2.80;;
11328;SDS011;5719;42.714;23.732;2023-04-03T09:14:48;3.42;;;2.75;;
11328;SDS011;5719;42.714;23.732;2023-04-03T09:17:26;3.70;;;3.00;;
11328;SDS011;5719;42.714;23.732;2023-04-03T09:20:09;5.65;;;3.60;;
11328;SDS011;5719;42.714;23.732;2023-04-03T09:22:43;4.80;;;2.97;;
11328;SDS011;5719;42.714;23.732;2023-04-03T09:25:11;5.60;;;3.10;;
11328;SDS011;5719;42.714;23.732;2023-04-03T09:27:41;6.50;;;3.17;;
11328;SDS011;5719;42.714;23.732;2023-04-03T09:30:11;7.10;;;3.05;;
11328;SDS011;5719;42.714;23.732;2023-04-03T09:32:41;3.70;;;2.95;;
11328;SDS011;5719;42.714;23.732;2023-04-03T09:35:16;4.40;;;2.53;;
11328;SDS011;5719;42.714;23.732;2023-04-03T09:37:47;4.78;;;2.70;;
11328;SDS011;5719;42.714;23.732;2023-04-03T09:40:30;4.13;;;2.38;;
11328;SDS011;5719;42.714;23.732;2023-04-03T09:45:52;3.05;;;1.98;;
11328;SDS011;5719;42.714;23.732;2023-04-03T09:48:23;1.83;;;1.70;;
11328;SDS011;5719;42.714;23.732;2023-04-03T09:50:57;2.28;;;1.90;;
11328;SDS011;5719;42.714;23.732;2023-04-03T09:53:28;1.73;;;1.60;;
11328;SDS011;5719;42.714;23.732;2023-04-03T09:55:57;1.40;;;1.30;;
11328;SDS011;5719;42.714;23.732;2023-04-03T09:58:26;2.00;;;1.33;;
11328;SDS011;5719;42.714;23.732;2023-04-03T10:00:56;1.00;;;1.00;;
11328;SDS011;5719;42.714;23.732;2023-04-03T10:03:27;1.83;;;1.08;;
11328;SDS011;5719;42.714;23.732;2023-04-03T10:05:56;1.17;;;0.93;;
11328;SDS011;5719;42.714;23.732;2023-04-03T10:08:25;0.82;;;0.82;;
11328;SDS011;5719;42.714;23.732;2023-04-03T10:13:49;0.77;;;0.77;;
11328;SDS011;5719;42.714;23.732;2023-04-03T10:16:19;0.90;;;0.90;;
11328;SDS011;5719;42.714;23.732;2023-04-03T10:18:55;1.00;;;1.00;;
11328;SDS011;5719;42.714;23.732;2023-04-03T10:21:32;1.13;;;0.90;;
11328;SDS011;5719;42.714;23.732;2023-04-03T10:24:09;1.10;;;0.90;;
11328;SDS011;5719;42.714;23.732;2023-04-03T10:26:43;0.90;;;0.90;;
11328;SDS011;5719;42.714;23.732;2023-04-03T10:29:18;0.93;;;0.90;;
11328;SDS011;5719;42.714;23.732;2023-04-03T10:31:53;0.90;;;0.90;;
11328;SDS011;5719;42.714;23.732;2023-04-03T10:34:28;1.00;;;1.00;;
11328;SDS011;5719;42.714;23.732;2023-04-03T10:37:01;0.70;;;0.70;;
11328;SDS011;5719;42.714;23.732;2023-04-03T10:39:36;1.33;;;1.00;;
11328;SDS011;5719;42.714;23.732;2023-04-03T10:42:13;1.10;;;0.95;;
11328;SDS011;5719;42.714;23.732;2023-04-03T10:44:53;0.90;;;0.90;;
11328;SDS011;5719;42.714;23.732;2023-04-03T10:47:30;0.90;;;0.82;;
11328;SDS011;5719;42.714;23.732;2023-04-03T10:50:10;2.25;;;0.90;;
11328;SDS011;5719;42.714;23.732;2023-04-03T10:52:51;0.70;;;0.70;;
11328;SDS011;5719;42.714;23.732;2023-04-03T10:55:24;1.38;;;0.93;;
11328;SDS011;5719;42.714;23.732;2023-04-03T10:58:01;1.20;;;1.10;;
11328;SDS011;5719;42.714;23.732;2023-04-03T11:00:33;1.73;;;0.93;;
11328;SDS011;5719;42.714;23.732;2023-04-03T11:03:07;0.70;;;0.70;;
11328;SDS011;5719;42.714;23.732;2023-04-03T11:05:41;1.10;;;1.00;;
11328;SDS011;5719;42.714;23.732;2023-04-03T11:08:13;1.00;;;1.00;;
11328;SDS011;5719;42.714;23.732;2023-04-03T11:10:51;1.48;;;1.17;;
11328;SDS011;5719;42.714;23.732;2023-04-03T11:13:24;0.98;;;0.93;;
11328;SDS011;5719;42.714;23.732;2023-04-03T11:18:27;2.83;;;0.88;;
11328;SDS011;5719;42.714;23.732;2023-04-03T11:21:02;1.67;;;1.10;;
11328;SDS011;5719;42.714;23.732;2023-04-03T11:23:36;1.20;;;0.98;;
11328;SDS011;5719;42.714;23.732;2023-04-03T11:26:07;1.35;;;0.90;;
11328;SDS011;5719;42.714;23.732;2023-04-03T11:28:37;1.65;;;0.93;;
11328;SDS011;5719;42.714;23.732;2023-04-03T11:31:08;0.85;;;0.85;;
11328;SDS011;5719;42.714;23.732;2023-04-03T11:33:47;1.63;;;0.95;;
11328;SDS011;5719;42.714;23.732;2023-04-03T11:36:23;1.50;;;1.13;;
11328;SDS011;5719;42.714;23.732;2023-04-03T11:38:53;1.23;;;1.00;;
11328;SDS011;5719;42.714;23.732;2023-04-03T11:41:25;1.55;;;1.20;;
11328;SDS011;5719;42.714;23.732;2023-04-03T11:43:58;1.10;;;1.10;;
11328;SDS011;5719;42.714;23.732;2023-04-03T11:46:49;1.00;;;1.00;;
11328;SDS011;5719;42.714;23.732;2023-04-03T11:58:24;1.08;;;1.00;;
11328;SDS011;5719;42.714;23.732;2023-04-03T12:00:56;1.80;;;1.10;;
11328;SDS011;5719;42.714;23.732;2023-04-03T12:12:43;2.45;;;1.00;;
11328;SDS011;5719;42.714;23.732;2023-04-03T12:15:26;1.98;;;1.35;;
11328;SDS011;5719;42.714;23.732;2023-04-03T12:21:18;2.30;;;1.95;;
11328;SDS011;5719;42.714;23.732;2023-04-03T12:23:58;2.75;;;1.65;;
11328;SDS011;5719;42.714;23.732;2023-04-03T12:26:29;2.85;;;1.80;;
11328;SDS011;5719;42.714;23.732;2023-04-03T12:29:02;2.10;;;1.60;;
11328;SDS011;5719;42.714;23.732;2023-04-03T12:31:42;2.45;;;1.60;;
11328;SDS011;5719;42.714;23.732;2023-04-03T12:34:36;1.92;;;1.75;;
11328;SDS011;5719;42.714;23.732;2023-04-03T12:37:37;3.38;;;1.67;;
11328;SDS011;5719;42.714;23.732;2023-04-03T12:40:16;2.72;;;1.92;;
11328;SDS011;5719;42.714;23.732;2023-04-03T12:43:02;2.80;;;1.70;;
11328;SDS011;5719;42.714;23.732;2023-04-03T12:45:43;2.58;;;1.50;;
11328;SDS011;5719;42.714;23.732;2023-04-03T12:48:14;2.60;;;1.50;;
11328;SDS011;5719;42.714;23.732;2023-04-03T12:50:44;1.67;;;1.58;;
11328;SDS011;5719;42.714;23.732;2023-04-03T12:53:13;1.52;;;1.42;;
11328;SDS011;5719;42.714;23.732;2023-04-03T12:55:46;1.70;;;1.60;;
11328;SDS011;5719;42.714;23.732;2023-04-03T12:58:13;1.80;;;1.52;;
11328;SDS011;5719;42.714;23.732;2023-04-03T13:00:43;1.60;;;1.50;;
11328;SDS011;5719;42.714;23.732;2023-04-03T13:03:20;1.48;;;1.23;;
11328;SDS011;5719;42.714;23.732;2023-04-03T13:05:58;1.58;;;1.30;;
11328;SDS011;5719;42.714;23.732;2023-04-03T13:08:29;4.32;;;1.60;;
11328;SDS011;5719;42.714;23.732;2023-04-03T13:11:00;2.83;;;1.52;;
11328;SDS011;5719;42.714;23.732;2023-04-03T13:13:29;1.60;;;1.40;;
11328;SDS011;5719;42.714;23.732;2023-04-03T13:15:56;4.80;;;1.58;;
11328;SDS011;5719;42.714;23.732;2023-04-03T13:18:26;1.60;;;1.50;;
11328;SDS011;5719;42.714;23.732;2023-04-03T13:20:57;2.85;;;1.75;;
11328;SDS011;5719;42.714;23.732;2023-04-03T13:23:28;3.63;;;1.70;;
11328;SDS011;5719;42.714;23.732;2023-04-03T13:25:56;3.35;;;1.90;;
11328;SDS011;5719;42.714;23.732;2023-04-03T13:28:30;5.03;;;2.00;;
11328;SDS011;5719;42.714;23.732;2023-04-03T13:31:03;1.65;;;1.55;;
11328;SDS011;5719;42.714;23.732;2023-04-03T13:33:35;1.73;;;1.58;;
11328;SDS011;5719;42.714;23.732;2023-04-03T13:36:04;2.28;;;1.60;;
11328;SDS011;5719;42.714;23.732;2023-04-03T13:38:34;2.05;;;1.65;;
11328;SDS011;5719;42.714;23.732;2023-04-03T13:41:04;1.70;;;1.60;;
11328;SDS011;5719;42.714;23.732;2023-04-03T13:43:47;1.75;;;1.65;;
11328;SDS011;5719;42.714;23.732;2023-04-03T13:46:23;1.90;;;1.80;;
11328;SDS011;5719;42.714;23.732;2023-04-03T13:48:53;2.72;;;1.83;;
11328;SDS011;5719;42.714;23.732;2023-04-03T13:51:22;1.70;;;1.60;;
11328;SDS011;5719;42.714;23.732;2023-04-03T13:53:52;1.83;;;1.40;;
11328;SDS011;5719;42.714;23.732;2023-04-03T13:56:25;1.55;;;1.45;;
11328;SDS011;5719;42.714;23.732;2023-04-03T13:58:58;2.22;;;1.50;;
11328;SDS011;5719;42.714;23.732;2023-04-03T14:01:33;1.55;;;1.45;;
11328;SDS011;5719;42.714;23.732;2023-04-03T14:04:12;1.92;;;1.38;;
11328;SDS011;5719;42.714;23.732;2023-04-03T14:06:43;1.73;;;1.50;;
11328;SDS011;5719;42.714;23.732;2023-04-03T14:09:10;1.60;;;1.50;;
11328;SDS011;5719;42.714;23.732;2023-04-03T14:11:39;2.35;;;1.77;;
11328;SDS011;5719;42.714;23.732;2023-04-03T14:14:11;2.35;;;1.80;;
11328;SDS011;5719;42.714;23.732;2023-04-03T14:16:43;2.97;;;2.17;;
11328;SDS011;5719;42.714;23.732;2023-04-03T14:19:16;2.22;;;2.03;;
11328;SDS011;5719;42.714;23.732;2023-04-03T14:21:46;2.60;;;2.40;;
11328;SDS011;5719;42.714;23.732;2023-04-03T14:24:13;3.25;;;2.05;;
11328;SDS011;5719;42.714;23.732;2023-04-03T14:26:43;3.63;;;2.53;;
11328;SDS011;5719;42.714;23.732;2023-04-03T14:29:11;3.58;;;3.10;;
11328;SDS011;5719;42.714;23.732;2023-04-03T14:31:39;8.48;;;3.50;;
11328;SDS011;5719;42.714;23.732;2023-04-03T14:34:06;4.82;;;3.03;;
11328;SDS011;5719;42.714;23.732;2023-04-03T14:36:34;5.13;;;3.15;;
11328;SDS011;5719;42.714;23.732;2023-04-03T14:39:01;5.72;;;3.03;;
11328;SDS011;5719;42.714;23.732;2023-04-03T14:41:29;3.88;;;3.33;;
11328;SDS011;5719;42.714;23.732;2023-04-03T14:43:58;6.10;;;3.20;;
11328;SDS011;5719;42.714;23.732;2023-04-03T14:46:26;6.43;;;3.35;;
11328;SDS011;5719;42.714;23.732;2023-04-03T14:48:56;5.43;;;3.72;;
11328;SDS011;5719;42.714;23.732;2023-04-03T14:51:24;6.00;;;3.58;;
11328;SDS011;5719;42.714;23.732;2023-04-03T14:53:52;4.32;;;3.38;;
11328;SDS011;5719;42.714;23.732;2023-04-03T14:56:23;6.22;;;3.35;;
11328;SDS011;5719;42.714;23.732;2023-04-03T14:58:54;3.78;;;3.10;;
11328;SDS011;5719;42.714;23.732;2023-04-03T15:01:25;3.45;;;2.90;;
11328;SDS011;5719;42.714;23.732;2023-04-03T15:03:53;5.30;;;3.30;;
11328;SDS011;5719;42.714;23.732;2023-04-03T15:06:20;4.43;;;2.97;;
11328;SDS011;5719;42.714;23.732;2023-04-03T15:08:47;3.90;;;3.13;;
11328;SDS011;5719;42.714;23.732;2023-04-03T15:11:15;5.88;;;2.90;;
11328;SDS011;5719;42.714;23.732;2023-04-03T15:13:42;6.93;;;3.35;;
11328;SDS011;5719;42.714;23.732;2023-04-03T15:16:13;4.10;;;3.03;;
11328;SDS011;5719;42.714;23.732;2023-04-03T15:18:44;4.82;;;3.20;;
11328;SDS011;5719;42.714;23.732;2023-04-03T15:21:13;3.97;;;2.95;;
11328;SDS011;5719;42.714;23.732;2023-04-03T15:23:40;5.05;;;2.63;;
11328;SDS011;5719;42.714;23.732;2023-04-03T15:26:08;2.20;;;1.70;;
11328;SDS011;5719;42.714;23.732;2023-04-03T15:28:36;3.70;;;1.35;;
11328;SDS011;5719;42.714;23.732;2023-04-03T15:31:05;2.05;;;1.40;;
11328;SDS011;5719;42.714;23.732;2023-04-03T15:33:33;1.60;;;1.40;;
11328;SDS011;5719;42.714;23.732;2023-04-03T15:36:04;2.30;;;1.52;;
11328;SDS011;5719;42.714;23.732;2023-04-03T15:38:32;1.02;;;1.02;;